Lafayette, IN (47903)

5:46 PM EDT on March 24, 2017 (GMT -0400)
Happy Hollow Road | | Change Station

Elev 554 ft 40.44 °N, 86.90 °W | Updated 4 minutes ago

Partly Cloudy
Partly Cloudy
73.6 °F
Feels Like 76 °F
N
5.6
Wind Variable Wind from ESE
Gusts 13.0 mph

Today
High -- | Low -- °F
--% Chance of Precip.
Yesterday
High -- | Low -- °F
Precip. -- in
Pressure 29.98 in
Visibility 10.0 miles
Clouds Few 4100 ft
Heat Index 76 °F
Dew Point 60 °F
Humidity 62%
Rainfall 0.00 in
Snow Depth Not available.
7:43 AM 8:04 PM
Waning Crescent, 13% visible
METAR KLAF 242054Z 20013G27KT 10SM FEW041 23/13 A2998 RMK AO2 PK WND 22030/2017 SLP151 T02280133 58014
Pressure 29.98 in
Visibility 10.0 miles
Clouds Few 4100 ft
Heat Index 76 °F
Dew Point 60 °F
Humidity 62%
Rainfall 0.00 in
Snow Depth Not available.
7:43 AM 8:04 PM
Waning Crescent, 13% visible
METAR KLAF 242054Z 20013G27KT 10SM FEW041 23/13 A2998 RMK AO2 PK WND 22030/2017 SLP151 T02280133 58014

Get Severe Weather Alerts

Thanks for signing up!

Be on the lookout for a verification email in your inbox.

You'll start receiving the daily forecast at 8 AM.

×

10-Day Weather Forecast

Almanac

Astronomy

Mar. 24, 2017 Rise Set
Actual Time
Civil Twilight
Nautical Twilight
Astronomical Twilight
Moon
Length of Visible Light
Length of Day
Tomorrow will be .
, % of the Moon is Illuminated

Today's Extremes

State Highs State Lows

Community

WunderPhotos

Upload Photos

1,962,540 photos uploaded!

WunderBlog® & News

Nearby

Air Quality

  Air Quality AQ Index Pollutant
Not available.

Snow Depth

Station Depth Elevation

Earthquake Activity

City Distance Mag. Time & Date
Minimum magnitude displayed is 2.5.

Earthquake Activity

City Distance Mag. Time & Date
Minimum magnitude displayed is 2.5.

Coastal Water Temperatures

Place Temperature

Stations

Nearby Weather Stations

Station Location Temp. Windchill Dew Point Humidity Wind Precip. Elev Updated Type
                   

Watches & Warnings

There are currently no watches in effect.